Time;durP1;ratioP1;P1;durP2;ratioP2;P2;SDS_P1;SDS_P2;PMS_P1;PMS_P2;Temp;Humidity;BMP_temperature;BMP_pressure;BME280_temperature;BME280_humidity;BME280_pressure;Samples;Min_cycle;Max_cycle;Signal;HPM_P1;HPM_P2
2022/03/24 00:01:29;;;;;;;54.97;30.00;;;12.80;78.50;;;;;;4962578;28;20059;-66
2022/03/24 00:03:55;;;;;;;53.60;27.65;;;12.80;78.40;;;;;;4950412;28;20122;-67
2022/03/24 00:06:20;;;;;;;60.03;28.67;;;12.80;78.40;;;;;;4950958;28;20035;-67
2022/03/24 00:08:46;;;;;;;58.47;30.13;;;12.70;78.30;;;;;;4979325;28;20060;-66
2022/03/24 00:11:12;;;;;;;59.33;31.38;;;12.70;78.40;;;;;;4977291;28;20033;-66
2022/03/24 00:13:37;;;;;;;55.00;30.05;;;12.70;78.60;;;;;;4961913;28;20039;-68
2022/03/24 00:16:04;;;;;;;63.30;31.10;;;12.60;78.70;;;;;;4974215;28;20021;-68
2022/03/24 00:18:32;;;;;;;57.33;30.15;;;12.60;79.00;;;;;;4950551;28;20035;-67
2022/03/24 00:21:01;;;;;;;69.18;29.60;;;12.60;79.00;;;;;;4952448;28;20043;-67
2022/03/24 00:23:27;;;;;;;52.75;28.05;;;12.50;79.00;;;;;;4973299;28;20390;-68
2022/03/24 00:25:53;;;;;;;53.15;28.02;;;12.50;79.00;;;;;;4969189;28;20036;-67
2022/03/24 00:28:19;;;;;;;62.00;29.20;;;12.40;78.90;;;;;;4933852;28;20032;-67
2022/03/24 00:30:45;;;;;;;56.05;29.65;;;12.40;78.90;;;;;;4940597;28;20035;-67
2022/03/24 00:33:12;;;;;;;51.90;28.05;;;12.40;78.90;;;;;;4951333;28;20076;-67
2022/03/24 00:35:38;;;;;;;53.15;28.67;;;12.30;78.90;;;;;;4933615;28;20047;-67
2022/03/24 00:38:05;;;;;;;60.60;28.92;;;12.30;78.80;;;;;;4933392;29;20043;-67
2022/03/24 00:40:30;;;;;;;66.65;30.67;;;12.30;78.90;;;;;;4941037;28;20137;-67
2022/03/24 00:42:57;;;;;;;57.72;30.30;;;12.30;79.10;;;;;;4950486;28;20110;-67
2022/03/24 00:45:24;;;;;;;61.95;29.58;;;12.20;79.10;;;;;;4973063;28;20584;-67
2022/03/24 00:47:49;;;;;;;68.10;33.00;;;12.20;79.00;;;;;;4951692;28;20101;-67
2022/03/24 00:50:15;;;;;;;57.88;30.40;;;12.20;79.20;;;;;;4952397;28;20105;-67
2022/03/24 00:52:45;;;;;;;59.97;31.98;;;12.20;79.40;;;;;;4983366;28;20016;-67
2022/03/24 00:55:15;;;;;;;66.43;31.58;;;12.20;79.50;;;;;;4951899;28;20545;-67
2022/03/24 00:57:42;;;;;;;65.57;33.58;;;12.10;79.50;;;;;;4952274;28;20061;-67
2022/03/24 01:00:16;;;;;;;64.32;33.60;;;12.10;79.70;;;;;;4981638;28;20414;-67
2022/03/24 01:02:48;;;;;;;74.82;36.63;;;12.00;79.90;;;;;;4952035;28;20038;-67
2022/03/24 01:05:15;;;;;;;63.15;33.60;;;12.10;80.00;;;;;;4951578;28;20035;-67
2022/03/24 01:07:42;;;;;;;58.22;31.73;;;12.00;80.00;;;;;;4940459;28;20036;-67
2022/03/24 01:10:11;;;;;;;61.42;32.80;;;12.00;80.10;;;;;;4939591;28;20520;-67
2022/03/24 01:12:39;;;;;;;58.42;32.05;;;12.00;80.10;;;;;;4974742;28;20044;-67
2022/03/24 01:15:07;;;;;;;61.67;31.75;;;11.90;80.10;;;;;;4978665;28;20031;-67
2022/03/24 01:17:34;;;;;;;62.60;33.67;;;11.90;80.20;;;;;;4977073;28;20105;-67
2022/03/24 01:20:00;;;;;;;63.50;33.42;;;11.90;80.90;;;;;;4969902;28;20047;-67
2022/03/24 01:22:25;;;;;;;66.38;33.10;;;11.90;80.90;;;;;;4950181;28;20023;-67
2022/03/24 01:24:51;;;;;;;68.20;33.20;;;11.90;80.30;;;;;;4945558;28;20063;-67
2022/03/24 01:27:18;;;;;;;58.78;31.98;;;11.90;80.40;;;;;;4945759;28;20031;-67
2022/03/24 01:29:44;;;;;;;62.58;32.40;;;11.80;80.40;;;;;;4943348;28;20035;-68
2022/03/24 01:32:12;;;;;;;58.28;30.83;;;11.80;80.40;;;;;;4946011;28;20046;-68
2022/03/24 01:34:38;;;;;;;59.95;32.38;;;11.80;80.50;;;;;;4939096;28;20043;-67
2022/03/24 01:37:08;;;;;;;64.47;33.10;;;11.80;80.50;;;;;;4951016;28;20035;-69
2022/03/24 01:39:36;;;;;;;58.50;32.15;;;11.70;81.10;;;;;;4950703;28;20483;-67
2022/03/24 01:42:01;;;;;;;67.40;32.17;;;11.70;80.60;;;;;;4950711;28;20042;-69
2022/03/24 01:44:29;;;;;;;67.25;33.70;;;11.70;80.60;;;;;;4942316;28;20398;-67
2022/03/24 01:47:02;;;;;;;65.97;34.58;;;11.70;80.70;;;;;;4945160;29;20020;-67
2022/03/24 01:49:31;;;;;;;66.50;32.65;;;11.60;80.70;;;;;;4941834;28;20505;-67
2022/03/24 01:51:57;;;;;;;71.35;32.10;;;11.60;80.80;;;;;;4947783;28;20046;-68
2022/03/24 01:54:24;;;;;;;64.78;32.40;;;11.60;81.00;;;;;;4948976;28;20169;-67
2022/03/24 01:56:52;;;;;;;73.05;37.13;;;11.50;81.10;;;;;;4992853;28;20544;-67
2022/03/24 01:59:19;;;;;;;65.45;33.38;;;11.50;81.30;;;;;;4950229;28;20457;-68
2022/03/24 02:01:48;;;;;;;66.80;32.92;;;11.40;81.40;;;;;;4940532;28;20036;-68
2022/03/24 02:04:15;;;;;;;77.18;36.55;;;11.40;81.60;;;;;;4949771;28;20035;-67
2022/03/24 02:06:41;;;;;;;62.67;32.35;;;11.40;81.70;;;;;;4950459;28;20043;-67
2022/03/24 02:09:07;;;;;;;67.50;35.45;;;11.40;81.80;;;;;;4946523;28;20030;-67
2022/03/24 02:11:34;;;;;;;70.18;34.75;;;11.30;81.90;;;;;;4950161;28;20047;-67
2022/03/24 02:14:01;;;;;;;65.35;33.53;;;11.30;82.00;;;;;;4939479;28;20032;-67
2022/03/24 02:16:34;;;;;;;63.97;32.85;;;11.30;82.00;;;;;;4978579;28;20025;-67
2022/03/24 02:19:10;;;;;;;;;;;11.30;82.10;;;;;;4962468;28;20042;-67
2022/03/24 02:21:37;;;;;;;62.00;32.13;;;11.30;82.00;;;;;;4949921;29;19911;-67
2022/03/24 02:24:03;;;;;;;67.25;32.40;;;11.30;81.90;;;;;;4944996;28;20067;-67
2022/03/24 02:26:29;;;;;;;60.15;31.15;;;11.20;81.90;;;;;;4947057;28;20070;-67
2022/03/24 02:28:57;;;;;;;69.03;34.22;;;11.20;81.90;;;;;;4951075;29;20038;-67
2022/03/24 02:31:23;;;;;;;65.35;33.13;;;11.20;81.90;;;;;;4945648;28;20118;-67
2022/03/24 02:34:37;;;;;;;85.75;37.78;;;11.20;81.80;;;;;;4943394;29;20050;-67
2022/03/24 02:36:39;;;;;;;70.35;35.88;;;11.20;81.90;;;;;;4938904;28;20040;-67
2022/03/24 02:39:06;;;;;;;64.05;32.08;;;11.20;82.00;;;;;;4950220;28;20042;-67
2022/03/24 02:41:31;;;;;;;61.83;32.38;;;11.20;82.00;;;;;;4951359;28;20047;-67
2022/03/24 02:43:58;;;;;;;60.55;31.88;;;11.10;82.00;;;;;;4950542;28;20065;-67
2022/03/24 02:46:24;;;;;;;57.17;30.58;;;11.10;81.90;;;;;;4940548;28;20044;-67
2022/03/24 02:48:50;;;;;;;63.90;32.33;;;11.10;81.80;;;;;;4947494;28;20034;-67
2022/03/24 02:51:15;;;;;;;56.80;30.17;;;11.10;81.90;;;;;;4940517;28;20048;-67
2022/03/24 02:53:41;;;;;;;66.60;32.10;;;11.00;81.80;;;;;;4934689;29;20028;-67
2022/03/24 02:56:07;;;;;;;69.13;34.38;;;11.00;81.50;;;;;;4950914;28;20027;-67
2022/03/24 02:58:32;;;;;;;66.32;34.47;;;11.00;82.00;;;;;;4937437;28;20042;-67
2022/03/24 03:00:58;;;;;;;65.13;33.70;;;10.90;82.10;;;;;;4941967;28;20056;-67
2022/03/24 03:03:24;;;;;;;64.80;31.85;;;11.00;82.20;;;;;;4944077;28;20058;-67
2022/03/24 03:05:50;;;;;;;58.38;30.20;;;10.90;82.10;;;;;;4938892;28;20121;-67
2022/03/24 03:08:19;;;;;;;62.78;32.30;;;10.90;82.10;;;;;;4949825;28;20027;-67
2022/03/24 03:10:45;;;;;;;72.65;35.70;;;10.90;82.20;;;;;;4950384;28;20525;-67
2022/03/24 03:13:11;;;;;;;67.85;34.90;;;10.90;82.30;;;;;;4935726;29;20032;-67
2022/03/24 03:15:36;;;;;;;69.10;35.75;;;10.80;82.40;;;;;;4939480;28;20041;-67
2022/03/24 03:18:05;;;;;;;69.13;34.80;;;10.80;82.40;;;;;;4964878;28;20039;-67
2022/03/24 03:20:30;;;;;;;64.53;33.60;;;10.70;82.50;;;;;;4949024;28;20050;-67
2022/03/24 03:22:56;;;;;;;61.55;33.00;;;10.70;82.60;;;;;;4948407;28;20044;-67
2022/03/24 03:25:22;;;;;;;71.25;34.70;;;10.80;82.80;;;;;;4950505;28;20035;-67
2022/03/24 03:27:48;;;;;;;68.40;33.15;;;10.70;82.80;;;;;;4949489;28;20036;-68
2022/03/24 03:30:14;;;;;;;71.57;33.85;;;10.70;82.90;;;;;;4950290;28;20036;-67
2022/03/24 03:32:41;;;;;;;70.53;34.50;;;10.70;83.00;;;;;;4949950;28;20031;-67
2022/03/24 03:35:08;;;;;;;64.15;32.50;;;10.60;83.00;;;;;;4949751;28;20122;-67
2022/03/24 03:37:33;;;;;;;68.40;34.25;;;10.70;83.00;;;;;;4950269;28;20036;-67
2022/03/24 03:39:59;;;;;;;74.82;35.08;;;10.60;82.80;;;;;;4950272;28;20047;-67
2022/03/24 03:42:25;;;;;;;66.20;34.83;;;10.60;82.90;;;;;;4944776;28;20097;-67
2022/03/24 03:44:51;;;;;;;71.82;35.13;;;10.60;82.90;;;;;;4950127;28;20035;-67
2022/03/24 03:47:17;;;;;;;65.55;32.90;;;10.60;82.90;;;;;;4949546;28;20023;-67
2022/03/24 03:49:43;;;;;;;64.03;34.15;;;10.60;82.90;;;;;;4949555;28;20035;-67
2022/03/24 03:52:09;;;;;;;75.05;32.95;;;10.60;83.00;;;;;;4949889;28;20035;-67
2022/03/24 03:54:34;;;;;;;72.47;34.80;;;10.60;83.00;;;;;;4950037;28;20035;-67
2022/03/24 03:57:00;;;;;;;67.78;34.58;;;10.60;83.10;;;;;;4949363;28;20490;-67
2022/03/24 03:59:26;;;;;;;64.35;32.85;;;10.60;83.00;;;;;;4949571;28;20546;-67
2022/03/24 04:01:54;;;;;;;67.20;35.65;;;10.60;83.00;;;;;;4947850;28;20027;-67
2022/03/24 04:04:20;;;;;;;70.28;33.30;;;10.60;82.90;;;;;;4938855;29;20047;-67
2022/03/24 04:06:45;;;;;;;73.18;35.70;;;10.50;82.70;;;;;;4949729;28;20039;-67
2022/03/24 04:09:11;;;;;;;64.50;33.78;;;10.60;82.60;;;;;;4941480;28;20028;-67
2022/03/24 04:11:37;;;;;;;66.75;33.63;;;10.60;82.50;;;;;;4929813;28;20072;-67
2022/03/24 04:14:04;;;;;;;76.72;34.97;;;10.50;82.30;;;;;;4939854;28;20043;-67
2022/03/24 04:16:29;;;;;;;69.03;33.40;;;10.50;82.20;;;;;;4949335;28;20035;-67
2022/03/24 04:18:55;;;;;;;66.13;33.08;;;10.50;82.10;;;;;;4949055;28;20382;-67
2022/03/24 04:21:21;;;;;;;66.35;34.65;;;10.50;82.00;;;;;;4936399;28;20039;-67
2022/03/24 04:23:49;;;;;;;75.85;34.40;;;10.50;81.80;;;;;;4949552;28;20035;-68
2022/03/24 04:26:15;;;;;;;55.80;30.55;;;10.50;81.70;;;;;;4948656;28;20039;-67
2022/03/24 04:28:44;;;;;;;57.10;28.73;;;10.50;81.70;;;;;;4948894;28;20031;-68
2022/03/24 04:31:11;;;;;;;56.35;28.17;;;10.40;81.60;;;;;;4936304;28;20023;-67
2022/03/24 04:33:37;;;;;;;60.80;30.13;;;10.40;81.50;;;;;;4950561;28;20081;-68
2022/03/24 04:36:08;;;;;;;62.25;30.52;;;10.40;81.40;;;;;;4952055;28;20039;-67
2022/03/24 04:38:37;;;;;;;59.53;30.65;;;10.40;81.30;;;;;;4952332;28;20118;-67
2022/03/24 04:41:03;;;;;;;61.53;31.45;;;10.40;81.40;;;;;;4952631;28;20047;-67
2022/03/24 04:43:29;;;;;;;58.95;30.50;;;10.40;81.30;;;;;;4939995;28;20044;-68
2022/03/24 04:45:55;;;;;;;65.60;29.52;;;10.40;81.30;;;;;;4945222;28;20050;-67
2022/03/24 04:48:21;;;;;;;61.63;31.65;;;10.30;81.20;;;;;;4946886;28;20463;-67
2022/03/24 04:50:46;;;;;;;63.40;32.25;;;10.40;81.20;;;;;;4951209;28;20050;-67
2022/03/24 04:53:15;;;;;;;71.20;32.45;;;10.30;81.00;;;;;;4951004;28;20024;-67
2022/03/24 04:55:45;;;;;;;61.67;31.13;;;10.30;81.00;;;;;;4952677;28;20039;-67
2022/03/24 04:58:11;;;;;;;61.22;30.25;;;10.30;81.00;;;;;;4951423;28;20032;-68
2022/03/24 05:00:37;;;;;;;65.35;32.60;;;10.30;81.00;;;;;;4951241;28;20084;-67
2022/03/24 05:03:04;;;;;;;61.40;31.73;;;10.30;80.90;;;;;;4951630;28;20104;-67
2022/03/24 05:05:30;;;;;;;60.38;29.92;;;10.30;80.90;;;;;;4937073;28;20090;-67
2022/03/24 05:07:55;;;;;;;65.13;33.40;;;10.20;80.70;;;;;;5019566;28;20022;-67
2022/03/24 05:10:21;;;;;;;64.47;31.98;;;10.20;80.70;;;;;;5009927;28;20534;-67
2022/03/24 05:12:49;;;;;;;62.15;32.33;;;10.20;80.60;;;;;;4999506;28;20023;-67
2022/03/24 05:15:15;;;;;;;63.25;31.83;;;10.20;80.50;;;;;;5030436;28;20037;-67
2022/03/24 05:17:41;;;;;;;61.45;29.60;;;10.20;80.50;;;;;;5021032;28;20022;-67
2022/03/24 05:20:07;;;;;;;57.20;29.17;;;10.20;80.50;;;;;;5011845;28;20140;-67
2022/03/24 05:22:35;;;;;;;51.22;26.13;;;10.20;80.70;;;;;;5015733;28;20025;-67
2022/03/24 05:25:01;;;;;;;55.33;26.45;;;10.20;80.70;;;;;;5010417;28;20413;-68
2022/03/24 05:27:26;;;;;;;53.75;27.52;;;10.20;80.80;;;;;;4940606;28;20027;-68
2022/03/24 05:29:54;;;;;;;56.38;26.98;;;10.20;80.90;;;;;;4952205;28;20038;-68
2022/03/24 05:32:20;;;;;;;54.22;27.42;;;10.20;81.00;;;;;;4952182;28;20106;-70
2022/03/24 05:34:46;;;;;;;55.60;27.50;;;10.20;81.00;;;;;;4948468;28;20119;-70
2022/03/24 05:37:13;;;;;;;60.33;29.05;;;10.10;81.00;;;;;;4942309;28;20032;-68
2022/03/24 05:39:38;;;;;;;56.47;28.98;;;10.10;81.10;;;;;;4938790;28;20483;-68
2022/03/24 05:42:04;;;;;;;59.58;28.42;;;10.10;81.10;;;;;;4950329;28;20038;-68
2022/03/24 05:44:33;;;;;;;59.58;30.63;;;10.10;81.10;;;;;;4945419;28;20040;-67
2022/03/24 05:46:59;;;;;;;58.00;29.83;;;10.10;81.30;;;;;;4939975;28;20572;-67
2022/03/24 05:49:26;;;;;;;55.47;28.63;;;10.00;81.30;;;;;;4932346;28;20036;-69
2022/03/24 05:52:21;;;;;;;59.92;30.02;;;10.00;81.50;;;;;;4950106;28;20058;-69
2022/03/24 05:54:47;;;;;;;61.22;31.45;;;10.00;81.50;;;;;;4950764;28;20402;-70
2022/03/24 05:57:13;;;;;;;61.30;31.50;;;10.00;81.70;;;;;;4952122;28;20051;-69
2022/03/24 05:59:39;;;;;;;62.67;29.10;;;10.00;81.80;;;;;;4949266;28;20066;-69
2022/03/24 06:02:05;;;;;;;59.92;30.38;;;10.00;81.90;;;;;;4940386;28;20391;-69
2022/03/24 06:04:31;;;;;;;63.72;30.40;;;9.90;81.90;;;;;;4948783;28;20035;-68
2022/03/24 06:06:58;;;;;;;59.03;30.65;;;10.00;82.70;;;;;;4984669;28;20496;-68
2022/03/24 06:09:24;;;;;;;59.40;30.95;;;9.90;82.10;;;;;;5016589;28;20022;-68
2022/03/24 06:11:49;;;;;;;67.20;31.30;;;10.00;82.20;;;;;;5008322;28;20029;-69
2022/03/24 06:14:15;;;;;;;59.95;30.38;;;9.90;82.30;;;;;;5011344;28;20031;-68
2022/03/24 06:16:41;;;;;;;61.05;31.08;;;9.90;82.40;;;;;;5012740;28;20048;-69
2022/03/24 06:19:10;;;;;;;68.10;33.72;;;9.90;82.50;;;;;;5011922;28;20029;-67
2022/03/24 06:21:38;;;;;;;66.40;31.77;;;9.90;82.60;;;;;;4996712;28;20043;-68
2022/03/24 06:24:05;;;;;;;60.65;30.05;;;9.90;82.70;;;;;;4999498;28;20124;-67
2022/03/24 06:26:31;;;;;;;60.08;29.05;;;9.90;82.70;;;;;;5030685;28;20120;-67
2022/03/24 06:28:57;;;;;;;64.05;30.98;;;9.90;82.70;;;;;;5002267;28;20091;-67
2022/03/24 06:31:23;;;;;;;65.70;30.80;;;9.90;82.80;;;;;;4995784;28;20113;-68
2022/03/24 06:33:48;;;;;;;69.03;33.33;;;9.90;83.00;;;;;;4991347;28;20070;-68
2022/03/24 06:36:15;;;;;;;54.55;27.95;;;10.00;83.10;;;;;;5005684;28;20033;-68
2022/03/24 06:38:41;;;;;;;69.32;32.42;;;10.00;83.30;;;;;;4955989;28;20107;-68
2022/03/24 06:41:07;;;;;;;67.57;31.05;;;10.00;83.60;;;;;;4942288;28;20388;-68
2022/03/24 06:43:36;;;;;;;66.88;33.20;;;10.00;83.70;;;;;;4946401;28;20019;-67
2022/03/24 06:46:04;;;;;;;63.78;31.88;;;10.00;83.90;;;;;;4999074;28;20031;-66
2022/03/24 06:48:30;;;;;;;65.55;32.90;;;10.10;84.00;;;;;;5004897;28;20420;-66
2022/03/24 06:50:56;;;;;;;65.53;33.92;;;10.10;84.00;;;;;;5000409;28;20039;-66
2022/03/24 06:53:21;;;;;;;72.47;35.67;;;10.10;84.10;;;;;;5000521;28;20025;-66
2022/03/24 06:55:47;;;;;;;68.60;33.55;;;10.10;84.30;;;;;;5004361;28;20044;-66
2022/03/24 06:58:12;;;;;;;70.00;34.30;;;10.10;84.40;;;;;;5006821;28;20056;-68
2022/03/24 07:00:39;;;;;;;73.63;35.15;;;10.10;84.60;;;;;;4992434;28;20402;-68
2022/03/24 07:03:05;;;;;;;68.88;34.65;;;10.10;84.80;;;;;;5008090;28;20029;-68
2022/03/24 07:05:31;;;;;;;66.50;34.28;;;10.20;85.20;;;;;;4988903;28;20035;-68
2022/03/24 07:07:57;;;;;;;67.75;34.15;;;10.20;85.40;;;;;;4992063;28;20032;-68
2022/03/24 07:10:22;;;;;;;70.53;33.33;;;10.20;85.60;;;;;;4985490;28;20389;-68
2022/03/24 07:12:49;;;;;;;72.05;35.85;;;10.30;85.80;;;;;;5005956;28;20036;-69
2022/03/24 07:15:15;;;;;;;72.47;34.20;;;10.30;86.10;;;;;;5007874;28;20886;-69
2022/03/24 07:17:41;;;;;;;74.78;38.60;;;10.40;86.40;;;;;;5001996;28;20088;-66
2022/03/24 07:20:10;;;;;;;81.18;41.03;;;10.40;86.60;;;;;;5001371;28;20128;-67
2022/03/24 07:22:37;;;;;;;67.13;36.08;;;10.30;87.10;;;;;;5004238;28;20034;-66
2022/03/24 07:25:05;;;;;;;77.88;38.10;;;10.40;87.70;;;;;;4994010;28;20035;-66
2022/03/24 07:27:31;;;;;;;80.28;40.42;;;10.40;87.80;;;;;;4992940;28;20054;-67
2022/03/24 07:29:57;;;;;;;81.50;42.78;;;10.40;88.30;;;;;;5007573;28;20034;-66
2022/03/24 07:32:22;;;;;;;78.43;42.05;;;10.40;88.50;;;;;;4966801;28;20042;-66
2022/03/24 07:34:48;;;;;;;79.68;41.63;;;10.50;88.70;;;;;;4978349;28;20038;-68
2022/03/24 07:37:14;;;;;;;80.50;40.53;;;10.50;88.70;;;;;;4965980;28;20042;-68
2022/03/24 07:39:40;;;;;;;81.68;39.03;;;10.50;88.60;;;;;;5009729;28;20044;-68
2022/03/24 07:42:06;;;;;;;80.72;39.88;;;10.50;88.50;;;;;;4992898;28;20031;-68
2022/03/24 07:44:32;;;;;;;76.35;39.03;;;10.60;88.50;;;;;;4993416;28;20037;-68
2022/03/24 07:46:58;;;;;;;73.47;36.53;;;10.60;88.50;;;;;;4965118;28;20039;-69
2022/03/24 07:49:23;;;;;;;80.88;39.70;;;10.70;88.60;;;;;;4960276;28;20031;-66
2022/03/24 07:51:49;;;;;;;80.43;38.53;;;10.70;88.60;;;;;;4958523;28;20050;-66
2022/03/24 07:54:15;;;;;;;77.53;38.00;;;10.80;88.60;;;;;;4959096;28;20047;-66
2022/03/24 07:56:41;;;;;;;75.05;37.13;;;10.80;88.60;;;;;;4947496;28;20031;-66
2022/03/24 07:59:07;;;;;;;68.93;36.45;;;10.80;88.60;;;;;;4969983;28;20025;-65
2022/03/24 08:01:34;;;;;;;73.90;38.17;;;10.80;88.80;;;;;;4958781;28;20031;-66
2022/03/24 08:04:05;;;;;;;64.63;35.38;;;10.90;89.00;;;;;;4957835;28;20069;-69
2022/03/24 08:06:32;;;;;;;76.20;38.30;;;10.90;89.20;;;;;;4955802;28;20031;-66
2022/03/24 08:08:58;;;;;;;73.07;36.70;;;10.90;89.30;;;;;;4959432;28;20132;-67
2022/03/24 08:11:25;;;;;;;70.75;37.22;;;11.00;89.20;;;;;;4973415;28;20023;-67
2022/03/24 08:13:53;;;;;;;71.07;37.63;;;11.00;89.10;;;;;;4973129;28;20059;-66
2022/03/24 08:16:20;;;;;;;77.15;37.22;;;11.10;89.00;;;;;;4954049;28;20045;-66
2022/03/24 08:18:46;;;;;;;70.63;37.30;;;11.10;88.90;;;;;;4964780;28;20949;-66
2022/03/24 08:21:12;;;;;;;73.45;36.30;;;11.20;88.80;;;;;;4956333;28;20530;-65
2022/03/24 08:23:44;;;;;;;79.65;36.40;;;11.20;88.60;;;;;;4966041;28;20071;-65
2022/03/24 08:26:10;;;;;;;65.75;35.25;;;11.20;88.30;;;;;;4960937;28;20031;-66
2022/03/24 08:28:36;;;;;;;73.88;36.63;;;11.20;88.00;;;;;;4970444;28;20046;-65
2022/03/24 08:31:04;;;;;;;74.78;36.42;;;11.30;87.90;;;;;;4951842;28;20035;-66
2022/03/24 08:33:30;;;;;;;78.35;34.80;;;11.40;87.80;;;;;;4966431;28;20046;-65
2022/03/24 08:35:56;;;;;;;68.82;35.72;;;11.40;87.40;;;;;;4972037;28;20027;-69
2022/03/24 08:38:21;;;;;;;65.93;34.13;;;11.50;87.30;;;;;;4968608;28;20463;-67
2022/03/24 08:40:47;;;;;;;75.45;35.78;;;11.50;87.10;;;;;;4958374;28;20089;-67
2022/03/24 08:43:13;;;;;;;68.15;32.80;;;11.60;87.20;;;;;;4936385;28;20039;-66
2022/03/24 08:45:39;;;;;;;75.03;36.22;;;11.60;87.00;;;;;;4938233;29;20491;-66
2022/03/24 08:48:06;;;;;;;67.63;33.85;;;11.60;86.70;;;;;;4935949;28;20119;-66
2022/03/24 08:50:33;;;;;;;74.20;33.38;;;11.70;86.50;;;;;;4943875;28;20077;-66
2022/03/24 08:52:59;;;;;;;72.90;33.58;;;11.70;86.20;;;;;;4950836;28;20043;-66
2022/03/24 08:55:25;;;;;;;62.95;32.22;;;11.80;86.10;;;;;;4941245;28;20431;-66
2022/03/24 08:57:51;;;;;;;71.47;35.88;;;11.90;86.00;;;;;;4933663;28;20566;-66
2022/03/24 09:00:17;;;;;;;70.30;32.38;;;11.90;86.00;;;;;;4948873;28;20051;-66
2022/03/24 09:02:46;;;;;;;75.88;34.33;;;12.00;85.70;;;;;;4951949;28;20032;-66
2022/03/24 09:05:12;;;;;;;60.97;31.55;;;12.00;85.50;;;;;;4951131;28;20447;-66
2022/03/24 09:07:38;;;;;;;69.97;32.50;;;12.00;85.50;;;;;;4951979;28;20043;-66
2022/03/24 09:10:06;;;;;;;67.53;31.73;;;12.10;85.50;;;;;;4952310;28;20106;-66
2022/03/24 09:12:34;;;;;;;71.07;33.17;;;12.10;85.50;;;;;;4943009;28;20098;-66
2022/03/24 09:15:00;;;;;;;69.47;34.38;;;12.10;85.50;;;;;;4939295;28;20050;-66
2022/03/24 09:17:26;;;;;;;74.07;35.58;;;12.20;85.60;;;;;;4952252;28;20475;-66
2022/03/24 09:19:52;;;;;;;75.22;36.72;;;12.30;85.60;;;;;;4950716;28;20051;-66
2022/03/24 09:22:17;;;;;;;77.70;36.58;;;12.30;85.80;;;;;;4952005;28;20301;-66
2022/03/24 09:24:43;;;;;;;77.10;36.45;;;12.40;85.90;;;;;;4939277;28;20046;-66
2022/03/24 09:27:09;;;;;;;76.10;37.00;;;12.50;85.90;;;;;;4951343;28;20032;-66
2022/03/24 09:29:35;;;;;;;75.53;36.15;;;12.50;85.80;;;;;;4948800;28;20028;-66
2022/03/24 09:32:01;;;;;;;72.10;34.40;;;12.60;85.90;;;;;;4941276;28;20502;-66
2022/03/24 09:34:27;;;;;;;75.50;37.65;;;12.70;85.90;;;;;;4951248;28;20036;-66
2022/03/24 09:36:52;;;;;;;72.85;34.15;;;12.70;85.90;;;;;;4951901;28;20478;-66
2022/03/24 09:39:19;;;;;;;75.43;36.13;;;12.70;85.80;;;;;;4938895;28;20067;-66
2022/03/24 09:41:47;;;;;;;67.72;34.60;;;12.80;85.90;;;;;;4951251;28;20066;-66
2022/03/24 09:44:14;;;;;;;72.32;35.25;;;12.80;85.90;;;;;;4951743;28;20034;-66
2022/03/24 09:46:41;;;;;;;74.00;35.80;;;12.90;85.60;;;;;;4944337;28;20035;-66
2022/03/24 09:49:10;;;;;;;70.15;35.33;;;12.90;85.60;;;;;;4932281;29;20067;-66
2022/03/24 09:51:39;;;;;;;66.80;32.67;;;13.00;85.50;;;;;;4936281;28;20135;-66
2022/03/24 09:54:07;;;;;;;72.55;34.03;;;13.00;85.50;;;;;;4947743;28;20050;-66
2022/03/24 09:56:33;;;;;;;67.72;32.22;;;13.10;85.50;;;;;;4941414;28;20062;-66
2022/03/24 09:58:59;;;;;;;69.38;34.53;;;13.10;85.20;;;;;;4932520;28;20077;-66
2022/03/24 10:01:24;;;;;;;71.78;34.00;;;13.20;84.80;;;;;;4933520;28;20059;-66
2022/03/24 10:04:16;;;;;;;71.07;34.55;;;13.20;84.60;;;;;;4935647;28;20141;-66
2022/03/24 10:07:05;;;;;;;69.93;33.83;;;13.30;84.50;;;;;;4951191;28;20036;-66
2022/03/24 10:09:45;;;;;;;66.82;31.83;;;13.30;84.20;;;;;;4940228;28;20043;-66
2022/03/24 10:12:22;;;;;;;67.25;33.50;;;13.30;84.10;;;;;;4938628;28;20126;-64
2022/03/24 10:15:11;;;;;;;71.93;33.42;;;13.40;83.60;;;;;;4936312;28;20494;-64
2022/03/24 10:17:39;;;;;;;67.68;34.78;;;13.40;83.50;;;;;;4942206;28;20073;-64
2022/03/24 10:20:15;;;;;;;64.85;31.75;;;13.40;83.70;;;;;;4950977;28;20526;-64
2022/03/24 10:22:52;;;;;;;72.63;35.53;;;13.50;83.80;;;;;;4937110;28;20070;-64
2022/03/24 10:25:21;;;;;;;81.28;33.55;;;13.60;83.40;;;;;;4931985;29;20043;-64
2022/03/24 10:28:05;;;;;;;76.65;32.95;;;13.60;83.10;;;;;;4932197;28;20388;-64
2022/03/24 10:30:54;;;;;;;65.00;32.17;;;13.70;82.70;;;;;;4943306;28;20468;-64
2022/03/24 10:33:45;;;;;;;72.30;36.00;;;13.80;82.50;;;;;;5018309;28;20045;-66
2022/03/24 10:36:14;;;;;;;72.35;32.65;;;13.80;82.30;;;;;;4984907;28;20400;-66
2022/03/24 10:38:44;;;;;;;70.18;32.78;;;13.90;82.40;;;;;;4940791;28;20438;-66
2022/03/24 10:41:14;;;;;;;75.35;35.55;;;13.90;82.20;;;;;;4955692;28;20049;-66
2022/03/24 10:43:40;;;;;;;75.03;34.63;;;14.00;82.40;;;;;;4950090;28;20028;-66
2022/03/24 10:46:13;;;;;;;69.93;30.60;;;14.00;82.20;;;;;;4945995;28;20486;-65
2022/03/24 10:48:38;;;;;;;73.77;33.20;;;14.00;81.10;;;;;;4944110;28;20047;-65
2022/03/24 10:51:07;;;;;;;63.97;32.58;;;14.10;81.30;;;;;;4949779;28;20450;-67
2022/03/24 10:53:41;;;;;;;79.03;33.92;;;14.10;80.80;;;;;;4970735;28;20023;-65
2022/03/24 10:56:27;;;;;;;76.72;32.17;;;14.20;80.50;;;;;;4998330;28;20042;-65
2022/03/24 10:58:59;;;;;;;76.63;34.20;;;14.20;80.60;;;;;;5012173;28;20112;-65
2022/03/24 11:01:28;;;;;;;70.68;33.97;;;14.30;80.90;;;;;;4989305;28;20057;-64
2022/03/24 11:03:54;;;;;;;74.30;37.38;;;14.40;81.20;;;;;;5015231;28;20030;-64
2022/03/24 11:06:22;;;;;;;73.63;36.30;;;14.40;81.00;;;;;;4999372;28;20029;-64
2022/03/24 11:08:59;;;;;;;72.65;34.90;;;14.50;81.10;;;;;;4939668;28;20039;-64
2022/03/24 11:11:26;;;;;;;78.88;37.75;;;14.50;80.90;;;;;;4931837;29;20031;-64
2022/03/24 11:13:54;;;;;;;67.05;36.85;;;14.60;80.80;;;;;;4945407;28;20398;-65
2022/03/24 11:16:38;;;;;;;68.85;36.50;;;14.60;80.50;;;;;;4937760;28;20530;-65
2022/03/24 11:19:14;;;;;;;70.72;34.55;;;14.60;80.00;;;;;;4959110;28;20037;-64
2022/03/24 11:21:43;;;;;;;63.72;32.13;;;14.70;79.20;;;;;;4967238;28;20566;-64
2022/03/24 11:24:11;;;;;;;73.70;35.63;;;14.70;79.70;;;;;;5028775;28;20033;-65
2022/03/24 11:26:37;;;;;;;67.95;34.17;;;14.70;79.10;;;;;;4960293;28;20483;-65
2022/03/24 11:29:04;;;;;;;66.78;31.02;;;14.80;78.20;;;;;;4949563;28;20039;-65
2022/03/24 11:31:31;;;;;;;69.60;31.45;;;14.80;77.60;;;;;;4938521;28;20024;-64
2022/03/24 11:34:00;;;;;;;59.85;31.85;;;14.80;77.30;;;;;;4948454;28;20502;-64
2022/03/24 11:36:27;;;;;;;66.10;33.85;;;14.90;76.50;;;;;;4946193;28;20055;-65
2022/03/24 11:39:02;;;;;;;61.75;31.23;;;14.90;76.60;;;;;;4931337;29;20036;-65
2022/03/24 11:41:43;;;;;;;55.05;29.05;;;14.90;76.60;;;;;;4930446;28;20051;-65
2022/03/24 11:44:18;;;;;;;67.15;36.75;;;14.90;76.60;;;;;;4946839;28;20451;-65
2022/03/24 11:46:54;;;;;;;58.90;29.67;;;15.00;75.70;;;;;;4943992;28;20043;-65
2022/03/24 11:49:25;;;;;;;62.08;31.10;;;15.00;75.30;;;;;;4938694;29;20097;-65
2022/03/24 11:51:56;;;;;;;63.75;32.60;;;15.10;75.20;;;;;;4964483;28;20039;-65
2022/03/24 11:54:35;;;;;;;61.13;30.05;;;15.10;74.80;;;;;;4940995;28;20039;-66
2022/03/24 11:57:35;;;;;;;52.10;26.23;;;15.10;74.30;;;;;;4940694;28;20482;-65
2022/03/24 12:00:13;;;;;;;61.13;28.80;;;15.20;75.00;;;;;;4947937;28;20134;-65
2022/03/24 12:02:44;;;;;;;54.60;27.17;;;15.20;74.40;;;;;;4947348;28;20475;-66
2022/03/24 12:05:11;;;;;;;55.55;28.60;;;15.20;73.70;;;;;;4953338;28;20050;-66
2022/03/24 12:07:37;;;;;;;58.45;29.33;;;15.20;73.00;;;;;;4953205;28;20039;-66
2022/03/24 12:10:08;;;;;;;52.05;25.85;;;15.30;71.40;;;;;;4944479;28;20036;-66
2022/03/24 12:12:34;;;;;;;51.67;26.77;;;15.30;69.40;;;;;;4945693;28;20471;-66
2022/03/24 12:15:10;;;;;;;58.17;28.33;;;15.40;69.10;;;;;;4990083;28;20071;-65
2022/03/24 12:17:35;;;;;;;46.17;22.65;;;15.40;68.10;;;;;;5034741;28;20033;-66
2022/03/24 12:20:20;;;;;;;59.45;30.35;;;15.50;68.80;;;;;;4957949;28;20049;-66
2022/03/24 12:22:46;;;;;;;55.75;27.13;;;15.50;68.80;;;;;;5000967;28;20033;-65
2022/03/24 12:25:12;;;;;;;52.40;26.98;;;15.50;69.40;;;;;;4957191;28;20046;-65
2022/03/24 12:28:03;;;;;;;54.83;30.50;;;15.60;69.70;;;;;;4948741;28;20039;-65
2022/03/24 12:31:06;;;;;;;47.40;24.60;;;15.60;67.90;;;;;;4950474;28;20454;-65
2022/03/24 12:33:33;;;;;;;49.97;26.90;;;15.60;68.20;;;;;;5004209;28;20028;-65